Bunga Lily — 3EVF3 — position and weather

sailwx.info

Track history (hours):
 
Tides and Currents Weather Stations Pressure Air Temp Water Temp Dewpoint Dewpoint Depression Visibility Wind Speed Wind Dir Waves Ship Positions

Bunga Lily

Last reported at 2017-Oct-19 12:29 UTC. Time now 2017-Oct-20 01:41 UTC.
Position N 49°53' W 003°58'.

Length 147 m; draft 8.9 m.

Type: Tanker. MMSI: 355093000.

Date/timePositionNaut miles runAvg speedWind from/ knotsBaromVisibWave heightAir tempDewpointWater temp
2017-Oct-19 12:29N 49°53' W 003°58'714.2
2017-Oct-19 12:01N 49°57' W 003°50'714.5
2017-Oct-19 11:31N 50°01' W 003°40'714.5
2017-Oct-19 11:01N 50°05' W 003°32'714.1
2017-Oct-19 10:30N 50°11' W 003°24'713.7
2017-Oct-19 10:00N 50°17' W 003°25'612.8
2017-Oct-19 09:31N 50°24' W 003°27'3 6.8
2017-Oct-19 09:00N 50°26' W 003°22'611.8
2017-Oct-19 08:30N 50°26' W 003°13'612.8
2017-Oct-19 08:00N 50°25' W 003°03'612.6
2017-Oct-19 07:31N 50°25' W 002°53'612.3
2017-Oct-19 07:01N 50°25' W 002°43'611.9
2017-Oct-19 06:31N 50°26' W 002°34'2211.9
2017-Oct-19 04:40N 50°27' W 001°60'213.3
2017-Oct-19 04:30N 50°27' W 001°56'914.0
2017-Oct-19 03:50N 50°27' W 001°42'514.9
2017-Oct-19 03:30N 50°28' W 001°34'815.7
2017-Oct-19 03:00N 50°28' W 001°22'816.4
2017-Oct-19 02:30N 50°28' W 001°09'816.4
2017-Oct-19 02:00N 50°28' W 000°56'816.5
2017-Oct-19 01:30N 50°28' W 000°43'816.1
2017-Oct-19 01:00N 50°29' W 000°30'815.7
2017-Oct-19 00:30N 50°29' W 000°18'815.2
2017-Oct-19 00:00N 50°30' W 000°06'714.6
2017-Oct-18 23:30N 50°32' E 000°05'714.2
2017-Oct-18 23:00N 50°35' E 000°15'713.6
2017-Oct-18 22:30N 50°37' E 000°25'713.1
2017-Oct-18 22:00N 50°39' E 000°35'612.8
2017-Oct-18 21:30N 50°43' E 000°43'612.7
2017-Oct-18 21:00N 50°47' E 000°51'712.9
2017-Oct-18 20:28N 50°51' E 001°00'613.5
2017-Oct-18 20:00N 50°55' E 001°08'714.5
2017-Oct-18 19:30N 50°59' E 001°17'815.8
2017-Oct-18 19:00N 51°04' E 001°27'816.7
2017-Oct-18 18:30N 51°09' E 001°37'816.1
2017-Oct-18 18:00N 51°15' E 001°46'815.3
2017-Oct-18 17:30N 51°21' E 001°53'714.5
2017-Oct-18 17:00N 51°27' E 001°60'713.8
2017-Oct-18 16:30N 51°32' E 002°07'713.4
2017-Oct-18 16:00N 51°37' E 002°15'713.1
2017-Oct-18 15:30N 51°42' E 002°22'612.6
2017-Oct-18 15:00N 51°47' E 002°28'2212.1
2017-Oct-18 13:11N 52°02' E 002°55'412.8
2017-Oct-18 12:52N 52°02' E 003°01'512.9
2017-Oct-18 12:30N 52°03' E 003°09'612.8
2017-Oct-18 12:00N 52°03' E 003°19'713.2
2017-Oct-18 11:30N 52°03' E 003°30'713.6
2017-Oct-18 11:01N 52°03' E 003°41'713.5
2017-Oct-18 10:30N 52°03' E 003°52'5 9.9
2017-Oct-18 10:00N 52°01' E 003°59'511.0
2017-Oct-18 09:30N 51°59' E 004°07'511.0
2017-Oct-18 09:00N 51°55' E 004°14'3 6.6
2017-Oct-18 08:30N 51°53' E 004°19'0 0.0
2017-Oct-18 07:59N 51°53' E 004°19'0 0.0
2017-Oct-18 07:29N 51°53' E 004°19'0 0.0
2017-Oct-18 06:56N 51°53' E 004°19'0 0.0
2017-Oct-18 06:29N 51°53' E 004°19'0 0.0
2017-Oct-18 05:59N 51°53' E 004°19'0 0.0
2017-Oct-18 05:29N 51°53' E 004°19'0 0.0
2017-Oct-18 04:59N 51°53' E 004°19'0 0.0
2017-Oct-18 04:29N 51°53' E 004°19'0 0.0
2017-Oct-18 03:59N 51°53' E 004°19'0 0.0
2017-Oct-18 03:29N 51°53' E 004°19'0 0.0
2017-Oct-18 02:56N 51°53' E 004°19'0 0.0
2017-Oct-18 02:20N 51°53' E 004°19'0 0.0
2017-Oct-18 01:56N 51°53' E 004°19'0 0.0
2017-Oct-18 01:29N 51°53' E 004°19'0 0.0
2017-Oct-18 00:53N 51°53' E 004°19'0 0.0
2017-Oct-18 00:29N 51°53' E 004°19'0 0.0
2017-Oct-17 23:59N 51°53' E 004°19'0 0.0
2017-Oct-17 23:26N 51°53' E 004°19'0 0.0
2017-Oct-17 22:59N 51°53' E 004°19'0 0.0
2017-Oct-17 22:29N 51°53' E 004°19'0 0.0
2017-Oct-17 21:59N 51°53' E 004°19'0 0.0
2017-Oct-17 21:29N 51°53' E 004°19'0 0.0
2017-Oct-17 20:59N 51°53' E 004°19'0 0.0
2017-Oct-17 20:29N 51°53' E 004°19'0 0.0
2017-Oct-17 19:56N 51°53' E 004°19'0 0.0
2017-Oct-17 19:26N 51°53' E 004°19'0 0.0
2017-Oct-17 18:56N 51°53' E 004°19'0 0.0
2017-Oct-17 18:20N 51°53' E 004°19'0 0.1
2017-Oct-17 17:59N 51°53' E 004°19'0 0.0
2017-Oct-17 17:29N 51°53' E 004°19'0 0.0
2017-Oct-17 16:59N 51°53' E 004°19'0 0.0
2017-Oct-17 16:26N 51°53' E 004°19'0 0.0
2017-Oct-17 15:56N 51°53' E 004°19'0 0.0
2017-Oct-17 15:17N 51°53' E 004°19'0 0.0
2017-Oct-17 14:56N 51°53' E 004°19'0 0.0
2017-Oct-17 14:26N 51°53' E 004°19'0 0.0
2017-Oct-17 13:59N 51°53' E 004°19'0 0.0
2017-Oct-17 13:29N 51°53' E 004°19'0 0.0
2017-Oct-17 12:59N 51°53' E 004°19'0 0.0
2017-Oct-17 12:29N 51°53' E 004°19'0 0.0
2017-Oct-17 11:59N 51°53' E 004°19'0 0.0
2017-Oct-17 11:29N 51°53' E 004°19'0 0.0
2017-Oct-17 10:56N 51°53' E 004°19'0 0.0
2017-Oct-17 10:26N 51°53' E 004°19'0 0.0
2017-Oct-17 09:56N 51°53' E 004°19'0 0.0
2017-Oct-17 09:26N 51°53' E 004°19'0 0.0
2017-Oct-17 08:53N 51°53' E 004°19'0 0.0
2017-Oct-17 08:31N 51°53' E 004°19'0 0.6
2017-Oct-17 08:01N 51°53' E 004°18'1 2.8
2017-Oct-17 07:30N 51°53' E 004°21'0 0.4
2017-Oct-17 06:59N 51°53' E 004°20'0 0.0
2017-Oct-17 06:29N 51°53' E 004°20'0 0.0
2017-Oct-17 05:59N 51°53' E 004°20'0 0.0
2017-Oct-17 05:29N 51°53' E 004°20'0 0.0
2017-Oct-17 04:59N 51°53' E 004°20'0 0.0
2017-Oct-17 04:29N 51°53' E 004°20'0 0.0
2017-Oct-17 03:59N 51°53' E 004°20'0 0.0
2017-Oct-17 03:29N 51°53' E 004°20'0 0.0
2017-Oct-17 02:59N 51°53' E 004°20'0 0.0
2017-Oct-17 02:29N 51°53' E 004°20'0 0.0
2017-Oct-17 01:59N 51°53' E 004°20'0 0.0
2017-Oct-17 01:29N 51°53' E 004°20'0 0.0
2017-Oct-17 00:59N 51°53' E 004°20'0 0.0
2017-Oct-17 00:29N 51°53' E 004°20'0 0.0
2017-Oct-16 23:59N 51°53' E 004°20'0 0.0
2017-Oct-16 23:29N 51°53' E 004°20'0 0.0
2017-Oct-16 22:59N 51°53' E 004°20'0 0.0
2017-Oct-16 22:29N 51°53' E 004°20'0 0.0
2017-Oct-16 21:59N 51°53' E 004°20'0 0.0
2017-Oct-16 21:29N 51°53' E 004°20'0 0.0
2017-Oct-16 20:59N 51°53' E 004°20'0 0.0
2017-Oct-16 20:29N 51°53' E 004°20'0 0.0
2017-Oct-16 19:59N 51°53' E 004°20'0 0.0
2017-Oct-16 19:29N 51°53' E 004°20'0 0.0
2017-Oct-16 18:59N 51°53' E 004°20'0 0.0
2017-Oct-16 18:29N 51°53' E 004°20'0 0.0
2017-Oct-16 17:59N 51°53' E 004°20'0 0.0
2017-Oct-16 17:29N 51°53' E 004°20'0 0.0
2017-Oct-16 16:59N 51°53' E 004°20'0 0.0
2017-Oct-16 16:29N 51°53' E 004°20'0 0.0
2017-Oct-16 15:59N 51°53' E 004°20'0 0.0
2017-Oct-16 15:29N 51°53' E 004°20'0 0.0
2017-Oct-16 14:59N 51°53' E 004°20'0 0.0
2017-Oct-16 13:59N 51°53' E 004°20'0 0.0
2017-Oct-16 13:29N 51°53' E 004°20'0 0.0
2017-Oct-16 12:59N 51°53' E 004°20'0 0.0
2017-Oct-16 12:29N 51°53' E 004°20'0 0.0
2017-Oct-16 11:59N 51°53' E 004°20'0 0.0
2017-Oct-16 11:29N 51°53' E 004°20'0 0.0
2017-Oct-16 10:59N 51°53' E 004°20'0 0.0
2017-Oct-16 10:29N 51°53' E 004°20'0 0.0
2017-Oct-16 09:59N 51°53' E 004°20'0 0.0
2017-Oct-16 09:29N 51°53' E 004°20'0 0.0
2017-Oct-16 08:59N 51°53' E 004°20'0 0.0
2017-Oct-16 08:29N 51°53' E 004°20'0 0.0
2017-Oct-16 07:59N 51°53' E 004°20'0 0.0
2017-Oct-16 07:29N 51°53' E 004°20'0 0.0
2017-Oct-16 06:59N 51°53' E 004°20'0 0.0
2017-Oct-16 06:29N 51°53' E 004°20'0 0.0
2017-Oct-16 06:00N 51°53' E 004°20'0 0.9
2017-Oct-16 05:30N 51°53' E 004°21'1 2.7
2017-Oct-16 05:00N 51°53' E 004°19'0 0.9
2017-Oct-16 04:30N 51°53' E 004°18'0 0.0
2017-Oct-16 03:57N 51°53' E 004°18'0 0.0
2017-Oct-16 03:30N 51°53' E 004°18'0 0.0
2017-Oct-16 02:57N 51°53' E 004°18'0 0.0
2017-Oct-16 02:27N 51°53' E 004°18'0 0.0
2017-Oct-16 01:57N 51°53' E 004°18'0 0.0
2017-Oct-16 01:30N 51°53' E 004°18'0 0.0
2017-Oct-16 00:57N 51°53' E 004°18'0 0.0
2017-Oct-16 00:27N 51°53' E 004°18'0 0.0
2017-Oct-15 23:57N 51°53' E 004°18'0 0.0
2017-Oct-15 23:27N 51°53' E 004°18'0 0.0
2017-Oct-15 22:57N 51°53' E 004°18'0 0.0
2017-Oct-15 22:27N 51°53' E 004°18'0 0.0
2017-Oct-15 21:57N 51°53' E 004°18'0 0.0
2017-Oct-15 21:30N 51°53' E 004°18'0 0.0
2017-Oct-15 20:57N 51°53' E 004°18'0 0.0
2017-Oct-15 20:27N 51°53' E 004°18'0 0.0
2017-Oct-15 19:57N 51°53' E 004°18'0 0.0
2017-Oct-15 19:24N 51°53' E 004°18'0 0.0
2017-Oct-15 18:51N 51°53' E 004°18'0 0.0
2017-Oct-15 18:27N 51°53' E 004°18'0 0.0
2017-Oct-15 17:51N 51°53' E 004°18'0 0.0
2017-Oct-15 17:27N 51°53' E 004°18'0 0.0
2017-Oct-15 16:57N 51°53' E 004°18'0 0.0
2017-Oct-15 16:27N 51°53' E 004°18'0 0.0
2017-Oct-15 15:57N 51°53' E 004°18'0 0.0
2017-Oct-15 15:27N 51°53' E 004°18'0 0.0
2017-Oct-15 14:57N 51°53' E 004°18'0 0.0
2017-Oct-15 13:57N 51°53' E 004°18'0 0.0
2017-Oct-15 13:27N 51°53' E 004°18'0 0.0
2017-Oct-15 13:00N 51°53' E 004°18'0 0.0
2017-Oct-15 12:21N 51°53' E 004°18'0 0.0
2017-Oct-15 11:57N 51°53' E 004°18'0 0.0
2017-Oct-15 11:27N 51°53' E 004°18'0 0.0
2017-Oct-15 11:00N 51°53' E 004°18'0 0.0
2017-Oct-15 10:30N 51°53' E 004°18'0 0.5
2017-Oct-15 09:48N 51°53' E 004°18'0 0.0
2017-Oct-15 09:30N 51°53' E 004°18'0 0.0
2017-Oct-15 09:00N 51°53' E 004°18'0 0.0
2017-Oct-15 08:30N 51°53' E 004°18'0 0.0
2017-Oct-15 08:00N 51°53' E 004°18'0 0.0
2017-Oct-15 07:30N 51°53' E 004°18'0 0.0
2017-Oct-15 07:00N 51°53' E 004°18'0 0.0
2017-Oct-15 06:30N 51°53' E 004°18'0 0.0
2017-Oct-15 05:57N 51°53' E 004°18'0 0.0
2017-Oct-15 05:30N 51°53' E 004°18'0 0.0
2017-Oct-15 04:57N 51°53' E 004°18'0 0.0
2017-Oct-15 04:30N 51°53' E 004°18'0 0.0
2017-Oct-15 04:00N 51°53' E 004°18'0 0.0
2017-Oct-15 03:30N 51°53' E 004°18'0 0.0
2017-Oct-15 02:45N 51°53' E 004°18'0 0.0
2017-Oct-15 02:21N 51°53' E 004°18'0 0.0
2017-Oct-15 01:57N 51°53' E 004°18'0 0.0
2017-Oct-15 01:30N 51°53' E 004°18'0 0.0
2017-Oct-15 00:57N 51°53' E 004°18'0 0.0
2017-Oct-15 00:27N 51°53' E 004°18'0 0.0
2017-Oct-14 23:42N 51°53' E 004°18'0 0.0
2017-Oct-14 23:27N 51°53' E 004°18'0 0.0
2017-Oct-14 22:54N 51°53' E 004°18'0 0.0
2017-Oct-14 22:27N 51°53' E 004°18'0 0.0
2017-Oct-14 22:00N 51°53' E 004°18'0 0.0
2017-Oct-14 21:15N 51°53' E 004°18'0 0.0
2017-Oct-14 20:48N 51°53' E 004°18'0 0.0
2017-Oct-14 20:30N 51°53' E 004°18'0 0.0
2017-Oct-14 20:00N 51°53' E 004°18'0 0.0
2017-Oct-14 19:18N 51°53' E 004°18'0 0.0
2017-Oct-14 18:57N 51°53' E 004°18'0 0.0
2017-Oct-14 18:30N 51°53' E 004°18'0 0.0
2017-Oct-14 17:51N 51°53' E 004°18'0 0.0
2017-Oct-14 17:30N 51°53' E 004°18'0 0.0
2017-Oct-14 17:00N 51°53' E 004°18'0 0.0
2017-Oct-14 16:30N 51°53' E 004°18'0 0.0
2017-Oct-14 16:00N 51°53' E 004°18'0 0.0
2017-Oct-14 15:18N 51°53' E 004°18'0 0.0
2017-Oct-14 14:48N 51°53' E 004°18'0 0.0
2017-Oct-14 14:30N 51°53' E 004°18'0 0.0
2017-Oct-14 14:00N 51°53' E 004°18'0 0.0
2017-Oct-14 13:30N 51°53' E 004°18'0 0.0
2017-Oct-14 13:00N 51°53' E 004°18'0 0.0
2017-Oct-14 12:30N 51°53' E 004°18'0 0.0
2017-Oct-14 11:57N 51°53' E 004°18'0 0.0
2017-Oct-14 11:24N 51°53' E 004°18'0 0.0
2017-Oct-14 11:00N 51°53' E 004°18'0 0.0
2017-Oct-14 10:24N 51°53' E 004°18'0 0.0
2017-Oct-14 09:57N 51°53' E 004°18'0 0.0
2017-Oct-14 09:30N 51°53' E 004°18'0 0.0
2017-Oct-14 09:00N 51°53' E 004°18'0 0.0
2017-Oct-14 08:30N 51°53' E 004°18'0 0.0
2017-Oct-14 08:00N 51°53' E 004°18'0 0.0
2017-Oct-14 07:30N 51°53' E 004°18'0 0.7
2017-Oct-14 07:00N 51°53' E 004°18'2 3.1
2017-Oct-14 06:30N 51°54' E 004°17'5 9.5
2017-Oct-14 06:00N 51°57' E 004°10'5 9.9
2017-Oct-14 05:30N 51°59' E 004°03'612.6
2017-Oct-14 05:00N 52°00' E 003°53'5 9.4
2017-Oct-14 04:30N 51°59' E 003°46'510.5
2017-Oct-14 03:59N 51°57' E 003°38'611.2
2017-Oct-14 03:29N 51°54' E 003°31'2 3.8
2017-Oct-14 02:59N 51°52' E 003°28'0 0.1
2017-Oct-14 02:29N 51°52' E 003°28'0 0.2
2017-Oct-14 01:59N 51°52' E 003°28'0 0.2
2017-Oct-14 01:26N 51°53' E 003°29'0 0.1
2017-Oct-14 00:59N 51°53' E 003°29'0 0.0
2017-Oct-14 00:29N 51°53' E 003°29'0 0.0
2017-Oct-13 23:56N 51°53' E 003°29'0 0.0
2017-Oct-13 23:29N 51°53' E 003°29'0 0.0
2017-Oct-13 22:59N 51°53' E 003°29'0 0.0
2017-Oct-13 21:44N 51°53' E 003°29'0 0.1
2017-Oct-13 21:29N 51°53' E 003°29'0 0.0
2017-Oct-13 20:44N 51°53' E 003°29'0 0.0
2017-Oct-13 20:26N 51°53' E 003°29'0 0.0
2017-Oct-13 19:59N 51°53' E 003°29'0 0.0
2017-Oct-13 19:29N 51°53' E 003°29'0 0.0
2017-Oct-13 18:59N 51°53' E 003°29'0 0.1
2017-Oct-13 18:29N 51°52' E 003°29'0 0.6
2017-Oct-13 18:00N 51°53' E 003°29'5 8.0
2017-Oct-13 17:25N 51°57' E 003°32'410.4
2017-Oct-13 17:00N 51°56' E 003°25'714.1
2017-Oct-13 16:29N 51°54' E 003°14'714.0
2017-Oct-13 16:00N 51°51' E 003°04'813.8
2017-Oct-13 15:27N 51°49' E 002°52'613.2
2017-Oct-13 15:00N 51°48' E 002°43'611.2
2017-Oct-13 14:29N 51°44' E 002°35'510.9
2017-Oct-13 13:59N 51°40' E 002°29'4 8.8
2017-Oct-13 13:29N 51°37' E 002°25'611.2
2017-Oct-13 12:59N 51°32' E 002°19'611.3
2017-Oct-13 12:27N 51°27' E 002°14'612.5
2017-Oct-13 12:00N 51°22' E 002°10'510.2
2017-Oct-13 11:30N 51°17' E 002°07'510.4
2017-Oct-13 11:00N 51°14' E 002°02'612.2
2017-Oct-13 10:30N 51°11' E 001°53'612.3
2017-Oct-13 10:00N 51°07' E 001°46'612.6
2017-Oct-13 09:30N 51°02' E 001°39'510.9
2017-Oct-13 09:00N 50°58' E 001°33'5 9.4
2017-Oct-13 08:30N 50°55' E 001°28'2411.0
2017-Oct-13 06:22N 50°35' E 001°07'1213.5
2017-Oct-13 05:26N 50°29' E 000°50'1813.6
2017-Oct-13 04:09N 50°24' E 000°23'213.9
2017-Oct-13 03:59N 50°23' E 000°20'714.1
2017-Oct-13 03:30N 50°21' E 000°10'714.2
2017-Oct-13 03:00N 50°20' W 000°01'714.7
2017-Oct-13 02:30N 50°20' W 000°12'715.0
2017-Oct-13 02:01N 50°21' W 000°24'1113.9
2017-Oct-13 01:14N 50°24' W 000°40'313.4
2017-Oct-13 01:00N 50°26' W 000°44'713.1
2017-Oct-13 00:29N 50°29' W 000°54'710.3
2017-Oct-12 23:50N 50°36' W 000°58'411.7
2017-Oct-12 23:30N 50°39' W 000°59'510.9
2017-Oct-12 23:00N 50°44' W 001°03'612.0
2017-Oct-12 22:31N 50°46' W 001°12'5 9.2
2017-Oct-12 22:00N 50°49' W 001°18'2 4.1
2017-Oct-12 21:31N 50°50' W 001°20'0 0.0
2017-Oct-12 20:59N 50°50' W 001°20'0 0.0
2017-Oct-12 20:29N 50°50' W 001°20'0 0.0
2017-Oct-12 19:59N 50°50' W 001°20'0 0.0
2017-Oct-12 19:29N 50°50' W 001°20'0 0.0
2017-Oct-12 18:59N 50°50' W 001°20'0 0.0
2017-Oct-12 18:29N 50°50' W 001°20'0 0.0
2017-Oct-12 17:59N 50°50' W 001°20'0 0.0
2017-Oct-12 17:29N 50°50' W 001°20'0 0.0
2017-Oct-12 16:59N 50°50' W 001°20'0 0.0
2017-Oct-12 16:29N 50°50' W 001°20'0 0.0
2017-Oct-12 15:59N 50°50' W 001°20'0 0.0
2017-Oct-12 15:29N 50°50' W 001°20'0 0.0
2017-Oct-12 14:59N 50°50' W 001°20'0 0.0
2017-Oct-12 14:29N 50°50' W 001°20'0 0.0
2017-Oct-12 13:59N 50°50' W 001°20'0 0.0
2017-Oct-12 13:29N 50°50' W 001°20'0 0.0
2017-Oct-12 12:59N 50°50' W 001°20'0 0.0
2017-Oct-12 12:29N 50°50' W 001°20'0 0.0
2017-Oct-12 11:59N 50°50' W 001°20'0 0.0
2017-Oct-12 11:29N 50°50' W 001°20'0 0.0
2017-Oct-12 10:59N 50°50' W 001°20'0 0.0
2017-Oct-12 10:29N 50°50' W 001°20'0 0.0
2017-Oct-12 09:59N 50°50' W 001°20'0 0.0
2017-Oct-12 09:29N 50°50' W 001°20'0 0.0
2017-Oct-12 08:59N 50°50' W 001°20'0 0.0
2017-Oct-12 08:29N 50°50' W 001°20'0 0.0
2017-Oct-12 07:59N 50°50' W 001°20'0 0.0
2017-Oct-12 07:29N 50°50' W 001°20'0 0.0
2017-Oct-12 06:59N 50°50' W 001°20'0 0.0
2017-Oct-12 06:29N 50°50' W 001°20'0 0.0
2017-Oct-12 05:59N 50°50' W 001°20'0 0.0
2017-Oct-12 05:30N 50°50' W 001°20'0 0.0
2017-Oct-12 04:59N 50°50' W 001°20'0 0.0
2017-Oct-12 04:29N 50°50' W 001°20'0 0.0
2017-Oct-12 03:59N 50°50' W 001°20'0 0.0
2017-Oct-12 03:29N 50°50' W 001°20'0 0.0
2017-Oct-12 02:59N 50°50' W 001°20'0 0.0
2017-Oct-12 02:29N 50°50' W 001°20'0 0.0
2017-Oct-12 01:59N 50°50' W 001°20'0 0.0
2017-Oct-12 01:30N 50°50' W 001°20'0 0.0
2017-Oct-12 00:59N 50°50' W 001°20'0 0.0
2017-Oct-12 00:30N 50°50' W 001°20'0 0.0
2017-Oct-11 23:59N 50°50' W 001°20'0 0.0
2017-Oct-11 23:29N 50°50' W 001°20'0 0.0
2017-Oct-11 22:59N 50°50' W 001°20'0 0.0
2017-Oct-11 22:29N 50°50' W 001°20'0 0.0
2017-Oct-11 21:59N 50°50' W 001°20'0 0.0
2017-Oct-11 21:29N 50°50' W 001°20'0 0.0
2017-Oct-11 20:59N 50°50' W 001°20'0 0.0
2017-Oct-11 20:29N 50°50' W 001°20'0 0.0
2017-Oct-11 19:59N 50°50' W 001°20'0 0.0
2017-Oct-11 19:29N 50°50' W 001°20'0 0.0
2017-Oct-11 18:59N 50°50' W 001°20'0 0.0
2017-Oct-11 18:29N 50°50' W 001°20'0 0.0
2017-Oct-11 17:59N 50°50' W 001°20'0 0.0
2017-Oct-11 17:29N 50°50' W 001°20'0 0.0
2017-Oct-11 16:59N 50°50' W 001°20'14 0.8
2017-Oct-11 00:00N 50°43' W 001°02'0 0.0
2017-Oct-10 23:30N 50°43' W 001°02'0 0.0
2017-Oct-10 23:00N 50°43' W 001°02'0 0.0
2017-Oct-10 22:30N 50°43' W 001°02'0 0.0
2017-Oct-10 22:00N 50°43' W 001°02'0 0.0
2017-Oct-10 21:30N 50°43' W 001°02'0 0.0
2017-Oct-10 21:00N 50°43' W 001°02'0 0.0
2017-Oct-10 20:30N 50°42' W 001°02'0 0.0
2017-Oct-10 20:00N 50°43' W 001°02'0 0.0
2017-Oct-10 19:30N 50°43' W 001°02'0 0.1
2017-Oct-10 19:00N 50°42' W 001°02'0 0.1
2017-Oct-10 18:30N 50°42' W 001°02'0 0.0
2017-Oct-10 18:00N 50°42' W 001°02'0 0.0
2017-Oct-10 17:30N 50°42' W 001°02'0 0.2
2017-Oct-10 17:00N 50°43' W 001°02'0 0.1
2017-Oct-10 16:30N 50°43' W 001°02'0 0.1
2017-Oct-10 16:00N 50°43' W 001°02'0 0.9
2017-Oct-10 15:30N 50°43' W 001°01'3 5.8
2017-Oct-10 15:00N 50°40' W 000°59'1110.8
2017-Oct-10 14:00N 50°29' W 001°00'7813.7
2017-Oct-10 08:17N 49°51' W 002°47'414.1
2017-Oct-10 08:01N 49°50' W 002°53'713.8
2017-Oct-10 07:30N 49°48' W 003°03'613.1
2017-Oct-10 07:00N 49°46' W 003°13'713.3
2017-Oct-10 06:30N 49°43' W 003°22'713.7
2017-Oct-10 06:00N 49°40' W 003°32'1013.3
2017-Oct-10 05:17N 49°37' W 003°45'413.0
2017-Oct-10 05:00N 49°35' W 003°51'613.0
2017-Oct-10 04:30N 49°33' W 004°00'713.3
2017-Oct-10 04:00N 49°32' W 004°10'613.3
2017-Oct-10 03:30N 49°29' W 004°20'613.0
2017-Oct-10 03:00N 49°26' W 004°28'712.7
2017-Oct-10 02:29N 49°23' W 004°38'612.4
2017-Oct-10 02:00N 49°21' W 004°46'611.4
2017-Oct-10 01:29N 49°19' W 004°54'511.3
2017-Oct-10 01:00N 49°16' W 005°02'611.2
2017-Oct-10 00:30N 49°14' W 005°10'511.0
2017-Oct-10 00:00N 49°12' W 005°17'611.3
2017-Oct-09 23:29N 49°09' W 005°26'611.3
2017-Oct-09 22:59N 49°07' W 005°34'611.7
2017-Oct-09 22:28N 49°05' W 005°42'4 9.2
2017-Oct-09 22:00N 49°03' W 005°48'1 1.2
2017-Oct-09 21:29N 49°03' W 005°49'2 4.4
2017-Oct-09 21:00N 49°01' W 005°49'0 0.5
2017-Oct-09 20:16N 49°01' W 005°49'1 1.4
2017-Oct-09 19:50N 49°01' W 005°50'3 1.4
2017-Oct-09 17:46N 49°01' W 005°55'0 1.4
2017-Oct-09 17:28N 49°01' W 005°55'1 1.0
2017-Oct-09 16:02N 49°01' W 005°57'0 0.5
2017-Oct-09 15:45N 49°01' W 005°58'0 0.3
2017-Oct-09 15:22N 49°01' W 005°58'0 0.2
2017-Oct-09 14:54N 49°01' W 005°58'0 0.3
2017-Oct-09 14:22N 49°01' W 005°58'4 4.9
2017-Oct-09 13:31N 49°03' W 005°52'0 8.8
2017-Oct-09 13:29N 49°03' W 005°52'611.8
2017-Oct-09 13:00N 49°06' W 005°44'  
Track history (hours):
 
Tides and Currents Weather Stations Pressure Air Temp Water Temp Dewpoint Dewpoint Depression Visibility Wind Speed Wind Dir Waves Ship Positions

Bunga Lily

Last reported at 2017-Oct-19 12:29 UTC. Time now 2017-Oct-20 01:41 UTC.
Position N 49°53' W 003°58'.

Length 147 m; draft 8.9 m.

Type: Tanker. MMSI: 355093000.

Date/timePositionNaut miles runAvg speedWind from/ knotsBaromVisibWave heightAir tempDewpointWater temp
2017-Oct-19 12:29N 49°53' W 003°58'714.2
2017-Oct-19 12:01N 49°57' W 003°50'714.5
2017-Oct-19 11:31N 50°01' W 003°40'714.5
2017-Oct-19 11:01N 50°05' W 003°32'714.1
2017-Oct-19 10:30N 50°11' W 003°24'713.7
2017-Oct-19 10:00N 50°17' W 003°25'612.8
2017-Oct-19 09:31N 50°24' W 003°27'3 6.8
2017-Oct-19 09:00N 50°26' W 003°22'611.8
2017-Oct-19 08:30N 50°26' W 003°13'612.8
2017-Oct-19 08:00N 50°25' W 003°03'612.6
2017-Oct-19 07:31N 50°25' W 002°53'612.3
2017-Oct-19 07:01N 50°25' W 002°43'611.9
2017-Oct-19 06:31N 50°26' W 002°34'2211.9
2017-Oct-19 04:40N 50°27' W 001°60'213.3
2017-Oct-19 04:30N 50°27' W 001°56'914.0
2017-Oct-19 03:50N 50°27' W 001°42'514.9
2017-Oct-19 03:30N 50°28' W 001°34'815.7
2017-Oct-19 03:00N 50°28' W 001°22'816.4
2017-Oct-19 02:30N 50°28' W 001°09'816.4
2017-Oct-19 02:00N 50°28' W 000°56'816.5
2017-Oct-19 01:30N 50°28' W 000°43'816.1
2017-Oct-19 01:00N 50°29' W 000°30'815.7
2017-Oct-19 00:30N 50°29' W 000°18'815.2
2017-Oct-19 00:00N 50°30' W 000°06'714.6
2017-Oct-18 23:30N 50°32' E 000°05'714.2
2017-Oct-18 23:00N 50°35' E 000°15'713.6
2017-Oct-18 22:30N 50°37' E 000°25'713.1
2017-Oct-18 22:00N 50°39' E 000°35'612.8
2017-Oct-18 21:30N 50°43' E 000°43'612.7
2017-Oct-18 21:00N 50°47' E 000°51'712.9
2017-Oct-18 20:28N 50°51' E 001°00'613.5
2017-Oct-18 20:00N 50°55' E 001°08'714.5
2017-Oct-18 19:30N 50°59' E 001°17'815.8
2017-Oct-18 19:00N 51°04' E 001°27'816.7
2017-Oct-18 18:30N 51°09' E 001°37'816.1
2017-Oct-18 18:00N 51°15' E 001°46'815.3
2017-Oct-18 17:30N 51°21' E 001°53'714.5
2017-Oct-18 17:00N 51°27' E 001°60'713.8
2017-Oct-18 16:30N 51°32' E 002°07'713.4
2017-Oct-18 16:00N 51°37' E 002°15'713.1
2017-Oct-18 15:30N 51°42' E 002°22'612.6
2017-Oct-18 15:00N 51°47' E 002°28'2212.1
2017-Oct-18 13:11N 52°02' E 002°55'412.8
2017-Oct-18 12:52N 52°02' E 003°01'512.9
2017-Oct-18 12:30N 52°03' E 003°09'612.8
2017-Oct-18 12:00N 52°03' E 003°19'713.2
2017-Oct-18 11:30N 52°03' E 003°30'713.6
2017-Oct-18 11:01N 52°03' E 003°41'713.5
2017-Oct-18 10:30N 52°03' E 003°52'5 9.9
2017-Oct-18 10:00N 52°01' E 003°59'511.0
2017-Oct-18 09:30N 51°59' E 004°07'511.0
2017-Oct-18 09:00N 51°55' E 004°14'3 6.6
2017-Oct-18 08:30N 51°53' E 004°19'0 0.0
2017-Oct-18 07:59N 51°53' E 004°19'0 0.0
2017-Oct-18 07:29N 51°53' E 004°19'0 0.0
2017-Oct-18 06:56N 51°53' E 004°19'0 0.0
2017-Oct-18 06:29N 51°53' E 004°19'0 0.0
2017-Oct-18 05:59N 51°53' E 004°19'0 0.0
2017-Oct-18 05:29N 51°53' E 004°19'0 0.0
2017-Oct-18 04:59N 51°53' E 004°19'0 0.0
2017-Oct-18 04:29N 51°53' E 004°19'0 0.0
2017-Oct-18 03:59N 51°53' E 004°19'0 0.0
2017-Oct-18 03:29N 51°53' E 004°19'0 0.0
2017-Oct-18 02:56N 51°53' E 004°19'0 0.0
2017-Oct-18 02:20N 51°53' E 004°19'0 0.0
2017-Oct-18 01:56N 51°53' E 004°19'0 0.0
2017-Oct-18 01:29N 51°53' E 004°19'0 0.0
2017-Oct-18 00:53N 51°53' E 004°19'0 0.0
2017-Oct-18 00:29N 51°53' E 004°19'0 0.0
2017-Oct-17 23:59N 51°53' E 004°19'0 0.0
2017-Oct-17 23:26N 51°53' E 004°19'0 0.0
2017-Oct-17 22:59N 51°53' E 004°19'0 0.0
2017-Oct-17 22:29N 51°53' E 004°19'0 0.0
2017-Oct-17 21:59N 51°53' E 004°19'0 0.0
2017-Oct-17 21:29N 51°53' E 004°19'0 0.0
2017-Oct-17 20:59N 51°53' E 004°19'0 0.0
2017-Oct-17 20:29N 51°53' E 004°19'0 0.0
2017-Oct-17 19:56N 51°53' E 004°19'0 0.0
2017-Oct-17 19:26N 51°53' E 004°19'0 0.0
2017-Oct-17 18:56N 51°53' E 004°19'0 0.0
2017-Oct-17 18:20N 51°53' E 004°19'0 0.1
2017-Oct-17 17:59N 51°53' E 004°19'0 0.0
2017-Oct-17 17:29N 51°53' E 004°19'0 0.0
2017-Oct-17 16:59N 51°53' E 004°19'0 0.0
2017-Oct-17 16:26N 51°53' E 004°19'0 0.0
2017-Oct-17 15:56N 51°53' E 004°19'0 0.0
2017-Oct-17 15:17N 51°53' E 004°19'0 0.0
2017-Oct-17 14:56N 51°53' E 004°19'0 0.0
2017-Oct-17 14:26N 51°53' E 004°19'0 0.0
2017-Oct-17 13:59N 51°53' E 004°19'0 0.0
2017-Oct-17 13:29N 51°53' E 004°19'0 0.0
2017-Oct-17 12:59N 51°53' E 004°19'0 0.0
2017-Oct-17 12:29N 51°53' E 004°19'0 0.0
2017-Oct-17 11:59N 51°53' E 004°19'0 0.0
2017-Oct-17 11:29N 51°53' E 004°19'0 0.0
2017-Oct-17 10:56N 51°53' E 004°19'0 0.0
2017-Oct-17 10:26N 51°53' E 004°19'0 0.0
2017-Oct-17 09:56N 51°53' E 004°19'0 0.0
2017-Oct-17 09:26N 51°53' E 004°19'0 0.0
2017-Oct-17 08:53N 51°53' E 004°19'0 0.0
2017-Oct-17 08:31N 51°53' E 004°19'0 0.6
2017-Oct-17 08:01N 51°53' E 004°18'1 2.8
2017-Oct-17 07:30N 51°53' E 004°21'0 0.4
2017-Oct-17 06:59N 51°53' E 004°20'0 0.0
2017-Oct-17 06:29N 51°53' E 004°20'0 0.0
2017-Oct-17 05:59N 51°53' E 004°20'0 0.0
2017-Oct-17 05:29N 51°53' E 004°20'0 0.0
2017-Oct-17 04:59N 51°53' E 004°20'0 0.0
2017-Oct-17 04:29N 51°53' E 004°20'0 0.0
2017-Oct-17 03:59N 51°53' E 004°20'0 0.0
2017-Oct-17 03:29N 51°53' E 004°20'0 0.0
2017-Oct-17 02:59N 51°53' E 004°20'0 0.0
2017-Oct-17 02:29N 51°53' E 004°20'0 0.0
2017-Oct-17 01:59N 51°53' E 004°20'0 0.0
2017-Oct-17 01:29N 51°53' E 004°20'0 0.0
2017-Oct-17 00:59N 51°53' E 004°20'0 0.0
2017-Oct-17 00:29N 51°53' E 004°20'0 0.0
2017-Oct-16 23:59N 51°53' E 004°20'0 0.0
2017-Oct-16 23:29N 51°53' E 004°20'0 0.0
2017-Oct-16 22:59N 51°53' E 004°20'0 0.0
2017-Oct-16 22:29N 51°53' E 004°20'0 0.0
2017-Oct-16 21:59N 51°53' E 004°20'0 0.0
2017-Oct-16 21:29N 51°53' E 004°20'0 0.0
2017-Oct-16 20:59N 51°53' E 004°20'0 0.0
2017-Oct-16 20:29N 51°53' E 004°20'0 0.0
2017-Oct-16 19:59N 51°53' E 004°20'0 0.0
2017-Oct-16 19:29N 51°53' E 004°20'0 0.0
2017-Oct-16 18:59N 51°53' E 004°20'0 0.0
2017-Oct-16 18:29N 51°53' E 004°20'0 0.0
2017-Oct-16 17:59N 51°53' E 004°20'0 0.0
2017-Oct-16 17:29N 51°53' E 004°20'0 0.0
2017-Oct-16 16:59N 51°53' E 004°20'0 0.0
2017-Oct-16 16:29N 51°53' E 004°20'0 0.0
2017-Oct-16 15:59N 51°53' E 004°20'0 0.0
2017-Oct-16 15:29N 51°53' E 004°20'0 0.0
2017-Oct-16 14:59N 51°53' E 004°20'0 0.0
2017-Oct-16 13:59N 51°53' E 004°20'0 0.0
2017-Oct-16 13:29N 51°53' E 004°20'0 0.0
2017-Oct-16 12:59N 51°53' E 004°20'0 0.0
2017-Oct-16 12:29N 51°53' E 004°20'0 0.0
2017-Oct-16 11:59N 51°53' E 004°20'0 0.0
2017-Oct-16 11:29N 51°53' E 004°20'0 0.0
2017-Oct-16 10:59N 51°53' E 004°20'0 0.0
2017-Oct-16 10:29N 51°53' E 004°20'0 0.0
2017-Oct-16 09:59N 51°53' E 004°20'0 0.0
2017-Oct-16 09:29N 51°53' E 004°20'0 0.0
2017-Oct-16 08:59N 51°53' E 004°20'0 0.0
2017-Oct-16 08:29N 51°53' E 004°20'0 0.0
2017-Oct-16 07:59N 51°53' E 004°20'0 0.0
2017-Oct-16 07:29N 51°53' E 004°20'0 0.0
2017-Oct-16 06:59N 51°53' E 004°20'0 0.0
2017-Oct-16 06:29N 51°53' E 004°20'0 0.0
2017-Oct-16 06:00N 51°53' E 004°20'0 0.9
2017-Oct-16 05:30N 51°53' E 004°21'1 2.7
2017-Oct-16 05:00N 51°53' E 004°19'0 0.9
2017-Oct-16 04:30N 51°53' E 004°18'0 0.0
2017-Oct-16 03:57N 51°53' E 004°18'0 0.0
2017-Oct-16 03:30N 51°53' E 004°18'0 0.0
2017-Oct-16 02:57N 51°53' E 004°18'0 0.0
2017-Oct-16 02:27N 51°53' E 004°18'0 0.0
2017-Oct-16 01:57N 51°53' E 004°18'0 0.0
2017-Oct-16 01:30N 51°53' E 004°18'0 0.0
2017-Oct-16 00:57N 51°53' E 004°18'0 0.0
2017-Oct-16 00:27N 51°53' E 004°18'0 0.0
2017-Oct-15 23:57N 51°53' E 004°18'0 0.0
2017-Oct-15 23:27N 51°53' E 004°18'0 0.0
2017-Oct-15 22:57N 51°53' E 004°18'0 0.0
2017-Oct-15 22:27N 51°53' E 004°18'0 0.0
2017-Oct-15 21:57N 51°53' E 004°18'0 0.0
2017-Oct-15 21:30N 51°53' E 004°18'0 0.0
2017-Oct-15 20:57N 51°53' E 004°18'0 0.0
2017-Oct-15 20:27N 51°53' E 004°18'0 0.0
2017-Oct-15 19:57N 51°53' E 004°18'0 0.0
2017-Oct-15 19:24N 51°53' E 004°18'0 0.0
2017-Oct-15 18:51N 51°53' E 004°18'0 0.0
2017-Oct-15 18:27N 51°53' E 004°18'0 0.0
2017-Oct-15 17:51N 51°53' E 004°18'0 0.0
2017-Oct-15 17:27N 51°53' E 004°18'0 0.0
2017-Oct-15 16:57N 51°53' E 004°18'0 0.0
2017-Oct-15 16:27N 51°53' E 004°18'0 0.0
2017-Oct-15 15:57N 51°53' E 004°18'0 0.0
2017-Oct-15 15:27N 51°53' E 004°18'0 0.0
2017-Oct-15 14:57N 51°53' E 004°18'0 0.0
2017-Oct-15 13:57N 51°53' E 004°18'0 0.0
2017-Oct-15 13:27N 51°53' E 004°18'0 0.0
2017-Oct-15 13:00N 51°53' E 004°18'0 0.0
2017-Oct-15 12:21N 51°53' E 004°18'0 0.0
2017-Oct-15 11:57N 51°53' E 004°18'0 0.0
2017-Oct-15 11:27N 51°53' E 004°18'0 0.0
2017-Oct-15 11:00N 51°53' E 004°18'0 0.0
2017-Oct-15 10:30N 51°53' E 004°18'0 0.5
2017-Oct-15 09:48N 51°53' E 004°18'0 0.0
2017-Oct-15 09:30N 51°53' E 004°18'0 0.0
2017-Oct-15 09:00N 51°53' E 004°18'0 0.0
2017-Oct-15 08:30N 51°53' E 004°18'0 0.0
2017-Oct-15 08:00N 51°53' E 004°18'0 0.0
2017-Oct-15 07:30N 51°53' E 004°18'0 0.0
2017-Oct-15 07:00N 51°53' E 004°18'0 0.0
2017-Oct-15 06:30N 51°53' E 004°18'0 0.0
2017-Oct-15 05:57N 51°53' E 004°18'0 0.0
2017-Oct-15 05:30N 51°53' E 004°18'0 0.0
2017-Oct-15 04:57N 51°53' E 004°18'0 0.0
2017-Oct-15 04:30N 51°53' E 004°18'0 0.0
2017-Oct-15 04:00N 51°53' E 004°18'0 0.0
2017-Oct-15 03:30N 51°53' E 004°18'0 0.0
2017-Oct-15 02:45N 51°53' E 004°18'0 0.0
2017-Oct-15 02:21N 51°53' E 004°18'0 0.0
2017-Oct-15 01:57N 51°53' E 004°18'0 0.0
2017-Oct-15 01:30N 51°53' E 004°18'0 0.0
2017-Oct-15 00:57N 51°53' E 004°18'0 0.0
2017-Oct-15 00:27N 51°53' E 004°18'0 0.0
2017-Oct-14 23:42N 51°53' E 004°18'0 0.0
2017-Oct-14 23:27N 51°53' E 004°18'0 0.0
2017-Oct-14 22:54N 51°53' E 004°18'0 0.0
2017-Oct-14 22:27N 51°53' E 004°18'0 0.0
2017-Oct-14 22:00N 51°53' E 004°18'0 0.0
2017-Oct-14 21:15N 51°53' E 004°18'0 0.0
2017-Oct-14 20:48N 51°53' E 004°18'0 0.0
2017-Oct-14 20:30N 51°53' E 004°18'0 0.0
2017-Oct-14 20:00N 51°53' E 004°18'0 0.0
2017-Oct-14 19:18N 51°53' E 004°18'0 0.0
2017-Oct-14 18:57N 51°53' E 004°18'0 0.0
2017-Oct-14 18:30N 51°53' E 004°18'0 0.0
2017-Oct-14 17:51N 51°53' E 004°18'0 0.0
2017-Oct-14 17:30N 51°53' E 004°18'0 0.0
2017-Oct-14 17:00N 51°53' E 004°18'0 0.0
2017-Oct-14 16:30N 51°53' E 004°18'0 0.0
2017-Oct-14 16:00N 51°53' E 004°18'0 0.0
2017-Oct-14 15:18N 51°53' E 004°18'0 0.0
2017-Oct-14 14:48N 51°53' E 004°18'0 0.0
2017-Oct-14 14:30N 51°53' E 004°18'0 0.0
2017-Oct-14 14:00N 51°53' E 004°18'0 0.0
2017-Oct-14 13:30N 51°53' E 004°18'0 0.0
2017-Oct-14 13:00N 51°53' E 004°18'0 0.0
2017-Oct-14 12:30N 51°53' E 004°18'0 0.0
2017-Oct-14 11:57N 51°53' E 004°18'0 0.0
2017-Oct-14 11:24N 51°53' E 004°18'0 0.0
2017-Oct-14 11:00N 51°53' E 004°18'0 0.0
2017-Oct-14 10:24N 51°53' E 004°18'0 0.0
2017-Oct-14 09:57N 51°53' E 004°18'0 0.0
2017-Oct-14 09:30N 51°53' E 004°18'0 0.0
2017-Oct-14 09:00N 51°53' E 004°18'0 0.0
2017-Oct-14 08:30N 51°53' E 004°18'0 0.0
2017-Oct-14 08:00N 51°53' E 004°18'0 0.0
2017-Oct-14 07:30N 51°53' E 004°18'0 0.7
2017-Oct-14 07:00N 51°53' E 004°18'2 3.1
2017-Oct-14 06:30N 51°54' E 004°17'5 9.5
2017-Oct-14 06:00N 51°57' E 004°10'5 9.9
2017-Oct-14 05:30N 51°59' E 004°03'612.6
2017-Oct-14 05:00N 52°00' E 003°53'5 9.4
2017-Oct-14 04:30N 51°59' E 003°46'510.5
2017-Oct-14 03:59N 51°57' E 003°38'611.2
2017-Oct-14 03:29N 51°54' E 003°31'2 3.8
2017-Oct-14 02:59N 51°52' E 003°28'0 0.1
2017-Oct-14 02:29N 51°52' E 003°28'0 0.2
2017-Oct-14 01:59N 51°52' E 003°28'0 0.2
2017-Oct-14 01:26N 51°53' E 003°29'0 0.1
2017-Oct-14 00:59N 51°53' E 003°29'0 0.0
2017-Oct-14 00:29N 51°53' E 003°29'0 0.0
2017-Oct-13 23:56N 51°53' E 003°29'0 0.0
2017-Oct-13 23:29N 51°53' E 003°29'0 0.0
2017-Oct-13 22:59N 51°53' E 003°29'0 0.0
2017-Oct-13 21:44N 51°53' E 003°29'0 0.1
2017-Oct-13 21:29N 51°53' E 003°29'0 0.0
2017-Oct-13 20:44N 51°53' E 003°29'0 0.0
2017-Oct-13 20:26N 51°53' E 003°29'0 0.0
2017-Oct-13 19:59N 51°53' E 003°29'0 0.0
2017-Oct-13 19:29N 51°53' E 003°29'0 0.0
2017-Oct-13 18:59N 51°53' E 003°29'0 0.1
2017-Oct-13 18:29N 51°52' E 003°29'0 0.6
2017-Oct-13 18:00N 51°53' E 003°29'5 8.0
2017-Oct-13 17:25N 51°57' E 003°32'410.4
2017-Oct-13 17:00N 51°56' E 003°25'714.1
2017-Oct-13 16:29N 51°54' E 003°14'714.0
2017-Oct-13 16:00N 51°51' E 003°04'813.8
2017-Oct-13 15:27N 51°49' E 002°52'613.2
2017-Oct-13 15:00N 51°48' E 002°43'611.2
2017-Oct-13 14:29N 51°44' E 002°35'510.9
2017-Oct-13 13:59N 51°40' E 002°29'4 8.8
2017-Oct-13 13:29N 51°37' E 002°25'611.2
2017-Oct-13 12:59N 51°32' E 002°19'611.3
2017-Oct-13 12:27N 51°27' E 002°14'612.5
2017-Oct-13 12:00N 51°22' E 002°10'510.2
2017-Oct-13 11:30N 51°17' E 002°07'510.4
2017-Oct-13 11:00N 51°14' E 002°02'612.2
2017-Oct-13 10:30N 51°11' E 001°53'612.3
2017-Oct-13 10:00N 51°07' E 001°46'612.6
2017-Oct-13 09:30N 51°02' E 001°39'510.9
2017-Oct-13 09:00N 50°58' E 001°33'5 9.4
2017-Oct-13 08:30N 50°55' E 001°28'2411.0
2017-Oct-13 06:22N 50°35' E 001°07'1213.5
2017-Oct-13 05:26N 50°29' E 000°50'1813.6
2017-Oct-13 04:09N 50°24' E 000°23'213.9
2017-Oct-13 03:59N 50°23' E 000°20'714.1
2017-Oct-13 03:30N 50°21' E 000°10'714.2
2017-Oct-13 03:00N 50°20' W 000°01'714.7
2017-Oct-13 02:30N 50°20' W 000°12'715.0
2017-Oct-13 02:01N 50°21' W 000°24'1113.9
2017-Oct-13 01:14N 50°24' W 000°40'313.4
2017-Oct-13 01:00N 50°26' W 000°44'713.1
2017-Oct-13 00:29N 50°29' W 000°54'710.3
2017-Oct-12 23:50N 50°36' W 000°58'411.7
2017-Oct-12 23:30N 50°39' W 000°59'510.9
2017-Oct-12 23:00N 50°44' W 001°03'612.0
2017-Oct-12 22:31N 50°46' W 001°12'5 9.2
2017-Oct-12 22:00N 50°49' W 001°18'2 4.1
2017-Oct-12 21:31N 50°50' W 001°20'0 0.0
2017-Oct-12 20:59N 50°50' W 001°20'0 0.0
2017-Oct-12 20:29N 50°50' W 001°20'0 0.0
2017-Oct-12 19:59N 50°50' W 001°20'0 0.0
2017-Oct-12 19:29N 50°50' W 001°20'0 0.0
2017-Oct-12 18:59N 50°50' W 001°20'0 0.0
2017-Oct-12 18:29N 50°50' W 001°20'0 0.0
2017-Oct-12 17:59N 50°50' W 001°20'0 0.0
2017-Oct-12 17:29N 50°50' W 001°20'0 0.0
2017-Oct-12 16:59N 50°50' W 001°20'0 0.0
2017-Oct-12 16:29N 50°50' W 001°20'0 0.0
2017-Oct-12 15:59N 50°50' W 001°20'0 0.0
2017-Oct-12 15:29N 50°50' W 001°20'0 0.0
2017-Oct-12 14:59N 50°50' W 001°20'0 0.0
2017-Oct-12 14:29N 50°50' W 001°20'0 0.0
2017-Oct-12 13:59N 50°50' W 001°20'0 0.0
2017-Oct-12 13:29N 50°50' W 001°20'0 0.0
2017-Oct-12 12:59N 50°50' W 001°20'0 0.0
2017-Oct-12 12:29N 50°50' W 001°20'0 0.0
2017-Oct-12 11:59N 50°50' W 001°20'0 0.0
2017-Oct-12 11:29N 50°50' W 001°20'0 0.0
2017-Oct-12 10:59N 50°50' W 001°20'0 0.0
2017-Oct-12 10:29N 50°50' W 001°20'0 0.0
2017-Oct-12 09:59N 50°50' W 001°20'0 0.0
2017-Oct-12 09:29N 50°50' W 001°20'0 0.0
2017-Oct-12 08:59N 50°50' W 001°20'0 0.0
2017-Oct-12 08:29N 50°50' W 001°20'0 0.0
2017-Oct-12 07:59N 50°50' W 001°20'0 0.0
2017-Oct-12 07:29N 50°50' W 001°20'0 0.0
2017-Oct-12 06:59N 50°50' W 001°20'0 0.0
2017-Oct-12 06:29N 50°50' W 001°20'0 0.0
2017-Oct-12 05:59N 50°50' W 001°20'0 0.0
2017-Oct-12 05:30N 50°50' W 001°20'0 0.0
2017-Oct-12 04:59N 50°50' W 001°20'0 0.0
2017-Oct-12 04:29N 50°50' W 001°20'0 0.0
2017-Oct-12 03:59N 50°50' W 001°20'0 0.0
2017-Oct-12 03:29N 50°50' W 001°20'0 0.0
2017-Oct-12 02:59N 50°50' W 001°20'0 0.0
2017-Oct-12 02:29N 50°50' W 001°20'0 0.0
2017-Oct-12 01:59N 50°50' W 001°20'0 0.0
2017-Oct-12 01:30N 50°50' W 001°20'0 0.0
2017-Oct-12 00:59N 50°50' W 001°20'0 0.0
2017-Oct-12 00:30N 50°50' W 001°20'0 0.0
2017-Oct-11 23:59N 50°50' W 001°20'0 0.0
2017-Oct-11 23:29N 50°50' W 001°20'0 0.0
2017-Oct-11 22:59N 50°50' W 001°20'0 0.0
2017-Oct-11 22:29N 50°50' W 001°20'0 0.0
2017-Oct-11 21:59N 50°50' W 001°20'0 0.0
2017-Oct-11 21:29N 50°50' W 001°20'0 0.0
2017-Oct-11 20:59N 50°50' W 001°20'0 0.0
2017-Oct-11 20:29N 50°50' W 001°20'0 0.0
2017-Oct-11 19:59N 50°50' W 001°20'0 0.0
2017-Oct-11 19:29N 50°50' W 001°20'0 0.0
2017-Oct-11 18:59N 50°50' W 001°20'0 0.0
2017-Oct-11 18:29N 50°50' W 001°20'0 0.0
2017-Oct-11 17:59N 50°50' W 001°20'0 0.0
2017-Oct-11 17:29N 50°50' W 001°20'0 0.0
2017-Oct-11 16:59N 50°50' W 001°20'14 0.8
2017-Oct-11 00:00N 50°43' W 001°02'0 0.0
2017-Oct-10 23:30N 50°43' W 001°02'0 0.0
2017-Oct-10 23:00N 50°43' W 001°02'0 0.0
2017-Oct-10 22:30N 50°43' W 001°02'0 0.0
2017-Oct-10 22:00N 50°43' W 001°02'0 0.0
2017-Oct-10 21:30N 50°43' W 001°02'0 0.0
2017-Oct-10 21:00N 50°43' W 001°02'0 0.0
2017-Oct-10 20:30N 50°42' W 001°02'0 0.0
2017-Oct-10 20:00N 50°43' W 001°02'0 0.0
2017-Oct-10 19:30N 50°43' W 001°02'0 0.1
2017-Oct-10 19:00N 50°42' W 001°02'0 0.1
2017-Oct-10 18:30N 50°42' W 001°02'0 0.0
2017-Oct-10 18:00N 50°42' W 001°02'0 0.0
2017-Oct-10 17:30N 50°42' W 001°02'0 0.2
2017-Oct-10 17:00N 50°43' W 001°02'0 0.1
2017-Oct-10 16:30N 50°43' W 001°02'0 0.1
2017-Oct-10 16:00N 50°43' W 001°02'0 0.9
2017-Oct-10 15:30N 50°43' W 001°01'3 5.8
2017-Oct-10 15:00N 50°40' W 000°59'1110.8
2017-Oct-10 14:00N 50°29' W 001°00'7813.7
2017-Oct-10 08:17N 49°51' W 002°47'414.1
2017-Oct-10 08:01N 49°50' W 002°53'713.8
2017-Oct-10 07:30N 49°48' W 003°03'613.1
2017-Oct-10 07:00N 49°46' W 003°13'713.3
2017-Oct-10 06:30N 49°43' W 003°22'713.7
2017-Oct-10 06:00N 49°40' W 003°32'1013.3
2017-Oct-10 05:17N 49°37' W 003°45'413.0
2017-Oct-10 05:00N 49°35' W 003°51'613.0
2017-Oct-10 04:30N 49°33' W 004°00'713.3
2017-Oct-10 04:00N 49°32' W 004°10'613.3
2017-Oct-10 03:30N 49°29' W 004°20'613.0
2017-Oct-10 03:00N 49°26' W 004°28'712.7
2017-Oct-10 02:29N 49°23' W 004°38'612.4
2017-Oct-10 02:00N 49°21' W 004°46'611.4
2017-Oct-10 01:29N 49°19' W 004°54'511.3
2017-Oct-10 01:00N 49°16' W 005°02'611.2
2017-Oct-10 00:30N 49°14' W 005°10'511.0
2017-Oct-10 00:00N 49°12' W 005°17'611.3
2017-Oct-09 23:29N 49°09' W 005°26'611.3
2017-Oct-09 22:59N 49°07' W 005°34'611.7
2017-Oct-09 22:28N 49°05' W 005°42'4 9.2
2017-Oct-09 22:00N 49°03' W 005°48'1 1.2
2017-Oct-09 21:29N 49°03' W 005°49'2 4.4
2017-Oct-09 21:00N 49°01' W 005°49'0 0.5
2017-Oct-09 20:16N 49°01' W 005°49'1 1.4
2017-Oct-09 19:50N 49°01' W 005°50'3 1.4
2017-Oct-09 17:46N 49°01' W 005°55'0 1.4
2017-Oct-09 17:28N 49°01' W 005°55'1 1.0
2017-Oct-09 16:02N 49°01' W 005°57'0 0.5
2017-Oct-09 15:45N 49°01' W 005°58'0 0.3
2017-Oct-09 15:22N 49°01' W 005°58'0 0.2
2017-Oct-09 14:54N 49°01' W 005°58'0 0.3
2017-Oct-09 14:22N 49°01' W 005°58'4 4.9
2017-Oct-09 13:31N 49°03' W 005°52'0 8.8
2017-Oct-09 13:29N 49°03' W 005°52'611.8
2017-Oct-09 13:00N 49°06' W 005°44'  

Dump ship's entire track history